Time;durP1;ratioP1;P1;durP2;ratioP2;P2;SDS_P1;SDS_P2;PMS_P1;PMS_P2;Temp;Humidity;BMP_temperature;BMP_pressure;BME280_temperature;BME280_humidity;BME280_pressure;Samples;Min_cycle;Max_cycle;Signal;HPM_P1;HPM_P2
2023/02/13 00:02:18;;;;;;;15.75;13.38;;;;;;;;;;5043068;28;20136;-60
2023/02/13 00:04:44;;;;;;;16.20;13.55;;;;;;;;;;5028103;28;20472;-62
2023/02/13 00:07:10;;;;;;;17.58;14.40;;;;;;;;;;5033326;28;20041;-61
2023/02/13 00:09:36;;;;;;;17.42;13.48;;;;;;;;;;5044789;28;20037;-59
2023/02/13 00:12:01;;;;;;;18.05;13.98;;;;;;;;;;5029906;28;20055;-60
2023/02/13 00:14:26;;;;;;;17.40;14.25;;;;;;;;;;5038254;28;20040;-59
2023/02/13 00:16:51;;;;;;;17.53;14.00;;;;;;;;;;5064808;28;20486;-60
2023/02/13 00:19:17;;;;;;;18.02;13.77;;;;;;;;;;5065774;28;20325;-59
2023/02/13 00:21:42;;;;;;;17.67;14.33;;;;;;;;;;5068615;28;20557;-58
2023/02/13 00:24:07;;;;;;;18.00;13.77;;;;;;;;;;5050101;28;20560;-57
2023/02/13 00:26:32;;;;;;;18.50;14.98;;;;;;;;;;5068159;28;20278;-60
2023/02/13 00:28:58;;;;;;;17.57;14.20;;;;;;;;;;5050241;28;20195;-60
2023/02/13 00:31:23;;;;;;;17.17;13.57;;;;;;;;;;5029945;28;21354;-61
2023/02/13 00:33:48;;;;;;;17.98;14.43;;;;;;;;;;5045083;28;20117;-59
2023/02/13 00:36:14;;;;;;;17.88;14.13;;;;;;;;;;5049735;28;20044;-56
2023/02/13 00:38:40;;;;;;;18.08;14.23;;;;;;;;;;5043814;28;20059;-59
2023/02/13 00:41:05;;;;;;;17.85;14.10;;;;;;;;;;5050067;28;20041;-57
2023/02/13 00:43:30;;;;;;;18.30;14.07;;;;;;;;;;5036751;28;20037;-59
2023/02/13 00:45:57;;;;;;;18.48;14.10;;;;;;;;;;5044406;28;20033;-60
2023/02/13 00:48:22;;;;;;;17.95;14.32;;;;;;;;;;5037310;28;20472;-59
2023/02/13 00:50:48;;;;;;;18.50;14.38;;;;;;;;;;5049501;28;20109;-60
2023/02/13 00:53:13;;;;;;;18.13;14.18;;;;;;;;;;5047429;28;20025;-61
2023/02/13 00:55:38;;;;;;;18.10;13.93;;;;;;;;;;5044201;28;20067;-60
2023/02/13 00:58:04;;;;;;;17.43;13.87;;;;;;;;;;5062975;28;20298;-62
2023/02/13 01:00:29;;;;;;;18.60;14.63;;;;;;;;;;5056099;28;20883;-61
2023/02/13 01:02:54;;;;;;;16.67;13.90;;;;;;;;;;5043337;28;20424;-58
2023/02/13 01:05:19;;;;;;;17.40;14.07;;;;;;;;;;5049579;28;20274;-60
2023/02/13 01:07:45;;;;;;;17.90;14.40;;;;;;;;;;5046247;28;20287;-58
2023/02/13 01:10:10;;;;;;;17.70;13.85;;;;;;;;;;5067756;28;20801;-59
2023/02/13 01:12:35;;;;;;;17.05;13.65;;;;;;;;;;5045666;28;20036;-57
2023/02/13 01:15:01;;;;;;;18.67;14.30;;;;;;;;;;5032490;28;20029;-60
2023/02/13 01:17:26;;;;;;;19.38;13.95;;;;;;;;;;5030391;28;20293;-60
2023/02/13 01:19:51;;;;;;;17.35;13.88;;;;;;;;;;5049054;28;20052;-59
2023/02/13 01:22:16;;;;;;;17.63;13.55;;;;;;;;;;5047947;28;20074;-59
2023/02/13 01:24:42;;;;;;;17.33;14.17;;;;;;;;;;5038889;28;20036;-59
2023/02/13 01:27:07;;;;;;;18.20;13.93;;;;;;;;;;5040882;28;20283;-62
2023/02/13 01:29:32;;;;;;;18.57;14.47;;;;;;;;;;5060109;28;20117;-60
2023/02/13 01:31:57;;;;;;;16.48;13.52;;;;;;;;;;5032151;28;20271;-58
2023/02/13 01:34:23;;;;;;;19.02;14.85;;;;;;;;;;5031495;28;20068;-59
2023/02/13 01:36:48;;;;;;;17.53;14.47;;;;;;;;;;5050525;28;20045;-59
2023/02/13 01:39:13;;;;;;;18.90;13.80;;;;;;;;;;5049493;28;20587;-58
2023/02/13 01:41:38;;;;;;;17.57;14.40;;;;;;;;;;5061216;28;20721;-58
2023/02/13 01:44:23;;;;;;;17.17;13.83;;;;;;;;;;5035522;28;20317;-59
2023/02/13 01:46:49;;;;;;;17.00;14.40;;;;;;;;;;5040317;28;20292;-58
2023/02/13 01:49:17;;;;;;;17.80;13.27;;;;;;;;;;5063337;28;20086;-59
2023/02/13 01:51:43;;;;;;;17.75;14.13;;;;;;;;;;5062949;28;20295;-62
2023/02/13 01:54:09;;;;;;;16.60;13.43;;;;;;;;;;5047229;28;20519;-57
2023/02/13 01:56:40;;;;;;;18.42;14.27;;;;;;;;;;5028699;28;20117;-61
2023/02/13 01:59:06;;;;;;;17.23;13.85;;;;;;;;;;5047085;28;20526;-60
2023/02/13 02:01:32;;;;;;;18.35;13.98;;;;;;;;;;5048765;28;20039;-61
2023/02/13 02:04:03;;;;;;;18.10;14.03;;;;;;;;;;5025870;28;20496;-58
2023/02/13 02:06:29;;;;;;;18.02;13.43;;;;;;;;;;5065198;28;20321;-61
2023/02/13 02:08:55;;;;;;;17.38;14.02;;;;;;;;;;5066160;28;20059;-61
2023/02/13 02:11:29;;;;;;;16.33;14.38;;;;;;;;;;5048371;28;20500;-61
2023/02/13 02:13:55;;;;;;;17.25;13.38;;;;;;;;;;5047691;28;20033;-62
2023/02/13 02:16:20;;;;;;;18.67;13.93;;;;;;;;;;5046435;28;20056;-59
2023/02/13 02:18:45;;;;;;;16.27;13.07;;;;;;;;;;5066045;28;20285;-60
2023/02/13 02:21:34;;;;;;;17.65;13.45;;;;;;;;;;5030710;28;20379;-59
2023/02/13 02:24:11;;;;;;;18.83;14.38;;;;;;;;;;5018230;28;20033;-59
2023/02/13 02:26:47;;;;;;;17.02;13.20;;;;;;;;;;5038042;28;20078;-61
2023/02/13 02:29:31;;;;;;;16.67;14.02;;;;;;;;;;5027591;28;20565;-58
2023/02/13 02:32:11;;;;;;;16.52;13.27;;;;;;;;;;5058719;28;20104;-59
2023/02/13 02:34:42;;;;;;;19.67;14.38;;;;;;;;;;5047475;28;20036;-58
2023/02/13 02:37:12;;;;;;;16.80;12.82;;;;;;;;;;5020887;28;20141;-59
2023/02/13 02:39:40;;;;;;;18.25;14.02;;;;;;;;;;5047598;28;20028;-60
2023/02/13 02:42:18;;;;;;;17.23;13.80;;;;;;;;;;5064730;28;20086;-59
2023/02/13 02:44:49;;;;;;;16.45;13.32;;;;;;;;;;5032281;28;20057;-59
2023/02/13 02:50:04;;;;;;;17.25;13.43;;;;;;;;;;5064566;28;20098;-56
2023/02/13 02:52:56;;;;;;;17.00;13.13;;;;;;;;;;5047629;28;20048;-60
2023/02/13 02:55:56;;;;;;;18.50;14.00;;;;;;;;;;5059631;28;20041;-58
2023/02/13 03:06:43;;;;;;;18.17;13.57;;;;;;;;;;5054142;28;20173;-59
2023/02/13 03:14:37;;;;;;;17.58;13.48;;;;;;;;;;5038546;28;20058;-58
2023/02/13 03:22:45;;;;;;;17.83;13.45;;;;;;;;;;5065464;28;20392;-61
2023/02/13 03:25:13;;;;;;;18.60;13.60;;;;;;;;;;5043563;28;20052;-61
2023/02/13 03:30:25;;;;;;;16.80;13.10;;;;;;;;;;5065516;28;20055;-60
2023/02/13 03:32:54;;;;;;;16.27;13.13;;;;;;;;;;5045072;28;20086;-60
2023/02/13 03:38:07;;;;;;;17.77;13.75;;;;;;;;;;5063426;28;20466;-60
2023/02/13 03:40:35;;;;;;;18.40;14.00;;;;;;;;;;5044280;28;20135;-58
2023/02/13 03:43:07;;;;;;;18.90;13.60;;;;;;;;;;5065204;28;20042;-57
2023/02/13 03:45:53;;;;;;;17.48;13.30;;;;;;;;;;5041021;28;20074;-63
2023/02/13 03:51:19;;;;;;;19.02;13.27;;;;;;;;;;5015316;28;20418;-58
2023/02/13 03:53:45;;;;;;;16.95;13.35;;;;;;;;;;5042631;28;20040;-60
2023/02/13 03:59:16;;;;;;;17.90;13.20;;;;;;;;;;5053855;28;20544;-60
2023/02/13 04:01:49;;;;;;;17.48;13.30;;;;;;;;;;5049909;28;20048;-58
2023/02/13 04:04:18;;;;;;;17.75;13.13;;;;;;;;;;5024367;28;20107;-60
2023/02/13 04:06:52;;;;;;;17.80;13.50;;;;;;;;;;5044277;28;20029;-61
2023/02/13 04:09:17;;;;;;;16.65;12.98;;;;;;;;;;5046452;28;20083;-58
2023/02/13 04:11:55;;;;;;;16.53;12.77;;;;;;;;;;5046573;28;20457;-60
2023/02/13 04:14:33;;;;;;;17.45;13.60;;;;;;;;;;5046992;28;20783;-61
2023/02/13 04:17:01;;;;;;;16.75;12.77;;;;;;;;;;5040049;28;20147;-61
2023/02/13 04:19:26;;;;;;;16.92;13.50;;;;;;;;;;5039007;28;20063;-58
2023/02/13 04:21:55;;;;;;;15.73;12.77;;;;;;;;;;5055327;28;20615;-59
2023/02/13 04:24:20;;;;;;;14.75;12.07;;;;;;;;;;5027327;28;20302;-59
2023/02/13 04:26:45;;;;;;;15.60;12.75;;;;;;;;;;5049809;28;20504;-59
2023/02/13 04:29:11;;;;;;;15.60;12.70;;;;;;;;;;5032917;28;20173;-60
2023/02/13 04:31:36;;;;;;;16.03;12.63;;;;;;;;;;5057525;28;20041;-59
2023/02/13 04:34:01;;;;;;;16.35;12.73;;;;;;;;;;5047419;28;20282;-58
2023/02/13 04:36:27;;;;;;;17.25;13.27;;;;;;;;;;5031416;28;20036;-61
2023/02/13 04:38:52;;;;;;;16.17;12.70;;;;;;;;;;5068210;28;20447;-61
2023/02/13 04:41:17;;;;;;;15.15;12.63;;;;;;;;;;5049786;28;20519;-58
2023/02/13 04:43:43;;;;;;;16.40;12.98;;;;;;;;;;5067811;28;20033;-59
2023/02/13 04:46:08;;;;;;;16.73;12.55;;;;;;;;;;5058434;28;20557;-59
2023/02/13 04:48:33;;;;;;;15.85;12.00;;;;;;;;;;5067878;28;20029;-61
2023/02/13 04:50:59;;;;;;;16.42;12.88;;;;;;;;;;5045505;28;20049;-58
2023/02/13 04:53:24;;;;;;;16.70;13.07;;;;;;;;;;5062921;28;20519;-60
2023/02/13 04:55:49;;;;;;;17.37;12.90;;;;;;;;;;5064536;28;20304;-60
2023/02/13 04:58:14;;;;;;;13.70;11.17;;;;;;;;;;5040631;28;20294;-60
2023/02/13 05:00:40;;;;;;;15.77;12.38;;;;;;;;;;5033161;28;20333;-60
2023/02/13 05:03:05;;;;;;;14.82;12.18;;;;;;;;;;5051911;28;20292;-61
2023/02/13 05:05:30;;;;;;;14.77;11.50;;;;;;;;;;5056884;28;20476;-58
2023/02/13 05:07:56;;;;;;;15.32;12.38;;;;;;;;;;5049051;28;20028;-59
2023/02/13 05:10:21;;;;;;;16.73;12.82;;;;;;;;;;5030876;28;20056;-59
2023/02/13 05:12:46;;;;;;;15.40;11.93;;;;;;;;;;5067804;28;20035;-57
2023/02/13 05:15:12;;;;;;;15.93;12.40;;;;;;;;;;5049385;28;20067;-60
2023/02/13 05:17:37;;;;;;;15.27;12.17;;;;;;;;;;5060044;28;20403;-62
2023/02/13 05:20:02;;;;;;;15.43;12.07;;;;;;;;;;5067361;28;20374;-60
2023/02/13 05:25:11;;;;;;;14.65;11.32;;;;;;;;;;5044924;28;20039;-60
2023/02/13 05:27:36;;;;;;;14.37;11.80;;;;;;;;;;5047689;28;20131;-61
2023/02/13 05:30:02;;;;;;;15.10;12.00;;;;;;;;;;5035390;28;20343;-61
2023/02/13 05:32:27;;;;;;;13.88;11.48;;;;;;;;;;5032006;28;20832;-61
2023/02/13 05:34:52;;;;;;;14.70;11.57;;;;;;;;;;5046743;28;20452;-59
2023/02/13 05:37:17;;;;;;;13.73;11.07;;;;;;;;;;5065834;28;20656;-59
2023/02/13 05:39:43;;;;;;;15.30;11.45;;;;;;;;;;5061666;28;20025;-61
2023/02/13 05:42:09;;;;;;;15.47;12.13;;;;;;;;;;5020294;28;20437;-59
2023/02/13 05:44:34;;;;;;;14.70;11.90;;;;;;;;;;5064726;28;20326;-59
2023/02/13 05:46:59;;;;;;;13.05;11.20;;;;;;;;;;5030878;28;20041;-62
2023/02/13 05:49:25;;;;;;;14.43;11.43;;;;;;;;;;5035313;28;20477;-59
2023/02/13 05:51:51;;;;;;;15.43;11.57;;;;;;;;;;5032456;28;20319;-60
2023/02/13 05:54:16;;;;;;;15.75;11.80;;;;;;;;;;5043773;28;20637;-60
2023/02/13 05:56:41;;;;;;;15.00;12.05;;;;;;;;;;5028086;28;20048;-61
2023/02/13 05:59:07;;;;;;;15.23;11.18;;;;;;;;;;5047062;28;20526;-67
2023/02/13 06:01:32;;;;;;;15.77;11.83;;;;;;;;;;5034462;28;20036;-68
2023/02/13 06:03:57;;;;;;;23.83;13.13;;;;;;;;;;5035226;28;20287;-61
2023/02/13 06:06:23;;;;;;;19.37;12.03;;;;;;;;;;5029482;28;20741;-60
2023/02/13 06:08:48;;;;;;;15.82;11.38;;;;;;;;;;5041429;28;20280;-65
2023/02/13 06:11:13;;;;;;;20.55;11.98;;;;;;;;;;5021773;28;20049;-62
2023/02/13 06:13:39;;;;;;;18.47;10.93;;;;;;;;;;5030955;28;20154;-62
2023/02/13 06:16:05;;;;;;;20.45;12.20;;;;;;;;;;5043399;28;20368;-61
2023/02/13 06:18:31;;;;;;;21.45;12.50;;;;;;;;;;5063466;28;20085;-61
2023/02/13 06:20:56;;;;;;;17.70;11.50;;;;;;;;;;5042716;28;20135;-61
2023/02/13 06:23:21;;;;;;;20.40;11.35;;;;;;;;;;5066026;28;20634;-61
2023/02/13 06:25:46;;;;;;;19.70;12.50;;;;;;;;;;5065605;28;20020;-58
2023/02/13 06:28:12;;;;;;;18.93;11.77;;;;;;;;;;5042430;28;20277;-62
2023/02/13 06:30:37;;;;;;;19.47;11.60;;;;;;;;;;5043513;28;20370;-63
2023/02/13 06:33:02;;;;;;;19.73;11.27;;;;;;;;;;5049639;28;20278;-58
2023/02/13 06:35:27;;;;;;;17.70;10.83;;;;;;;;;;5067387;28;20388;-57
2023/02/13 06:37:53;;;;;;;18.60;11.87;;;;;;;;;;5035569;28;20325;-62
2023/02/13 06:40:18;;;;;;;18.70;11.15;;;;;;;;;;5040025;28;20667;-61
2023/02/13 06:42:43;;;;;;;18.50;11.70;;;;;;;;;;5044004;28;20033;-61
2023/02/13 06:45:09;;;;;;;18.77;12.18;;;;;;;;;;5061057;28;20027;-60
2023/02/13 06:47:34;;;;;;;17.65;10.88;;;;;;;;;;5058471;28;20046;-60
2023/02/13 06:49:59;;;;;;;18.05;11.50;;;;;;;;;;5048748;28;20033;-61
2023/02/13 06:52:25;;;;;;;19.03;11.40;;;;;;;;;;5063622;28;20024;-60
2023/02/13 06:54:50;;;;;;;17.03;11.23;;;;;;;;;;5064423;28;20669;-64
2023/02/13 06:57:15;;;;;;;20.00;11.93;;;;;;;;;;5027724;28;20275;-59
2023/02/13 06:59:40;;;;;;;22.00;12.37;;;;;;;;;;5064765;28;20074;-58
2023/02/13 07:02:07;;;;;;;19.48;11.15;;;;;;;;;;5039231;28;20775;-63
2023/02/13 07:04:32;;;;;;;17.13;11.70;;;;;;;;;;5042004;28;20017;-61
2023/02/13 07:06:58;;;;;;;21.03;11.47;;;;;;;;;;5063971;28;20134;-59
2023/02/13 07:09:23;;;;;;;18.50;12.00;;;;;;;;;;5048658;28;20309;-64
2023/02/13 07:11:48;;;;;;;20.03;12.30;;;;;;;;;;5048028;28;20468;-63
2023/02/13 07:14:13;;;;;;;17.80;11.07;;;;;;;;;;5045288;28;20354;-60
2023/02/13 07:16:39;;;;;;;17.33;12.60;;;;;;;;;;5064933;28;20629;-61
2023/02/13 07:19:04;;;;;;;19.50;11.83;;;;;;;;;;5031277;28;20393;-63
2023/02/13 07:21:29;;;;;;;19.92;11.88;;;;;;;;;;5029524;28;20263;-61
2023/02/13 07:23:54;;;;;;;19.70;12.30;;;;;;;;;;5029029;28;20028;-63
2023/02/13 07:26:20;;;;;;;18.85;12.63;;;;;;;;;;5044088;28;20271;-66
2023/02/13 07:28:45;;;;;;;18.07;11.97;;;;;;;;;;5045274;28;20020;-64
2023/02/13 07:31:10;;;;;;;21.67;12.53;;;;;;;;;;5038038;28;20424;-67
2023/02/13 07:33:36;;;;;;;17.83;12.15;;;;;;;;;;5023608;28;20283;-60
2023/02/13 07:36:04;;;;;;;18.27;12.13;;;;;;;;;;5026038;28;20031;-66
2023/02/13 07:38:29;;;;;;;19.88;13.13;;;;;;;;;;5031443;28;20024;-63
2023/02/13 07:41:01;;;;;;;25.70;13.30;;;;;;;;;;5037975;28;20135;-60
2023/02/13 07:43:26;;;;;;;20.20;12.68;;;;;;;;;;5028066;28;20139;-59
2023/02/13 07:45:54;;;;;;;17.50;12.43;;;;;;;;;;5020687;28;20512;-59
2023/02/13 07:48:20;;;;;;;19.35;12.55;;;;;;;;;;5063827;28;20029;-61
2023/02/13 07:50:45;;;;;;;18.75;12.60;;;;;;;;;;5046730;23;20050;-62
2023/02/13 07:53:10;;;;;;;19.93;12.47;;;;;;;;;;5004205;28;20519;-61
2023/02/13 07:55:37;;;;;;;17.85;11.85;;;;;;;;;;4989440;28;20273;-59
2023/02/13 07:58:02;;;;;;;18.20;11.52;;;;;;;;;;5007162;28;20121;-62
2023/02/13 08:00:27;;;;;;;19.00;12.40;;;;;;;;;;5010382;28;20112;-60
2023/02/13 08:02:53;;;;;;;19.80;12.18;;;;;;;;;;4987859;28;20026;-60
2023/02/13 08:05:18;;;;;;;19.23;12.32;;;;;;;;;;4999682;28;20041;-61
2023/02/13 08:07:43;;;;;;;18.80;12.07;;;;;;;;;;5010478;28;20366;-68
2023/02/13 08:12:53;;;;;;;18.67;12.68;;;;;;;;;;4978354;28;20057;-57
2023/02/13 08:15:19;;;;;;;21.63;12.87;;;;;;;;;;4987903;28;20489;-61
2023/02/13 08:17:44;;;;;;;18.93;12.00;;;;;;;;;;4979403;28;20509;-63
2023/02/13 08:20:09;;;;;;;16.43;11.50;;;;;;;;;;4976860;28;20277;-62
2023/02/13 08:22:35;;;;;;;17.95;12.48;;;;;;;;;;4973565;28;20276;-58
2023/02/13 08:25:00;;;;;;;16.50;12.10;;;;;;;;;;4988639;28;20048;-63
2023/02/13 08:27:26;;;;;;;17.63;12.00;;;;;;;;;;4989293;28;20057;-62
2023/02/13 08:29:52;;;;;;;16.10;12.07;;;;;;;;;;4989692;28;20422;-63
2023/02/13 08:32:17;;;;;;;17.67;12.63;;;;;;;;;;4957301;28;20054;-63
2023/02/13 08:34:42;;;;;;;19.33;13.27;;;;;;;;;;4964009;28;20073;-62
2023/02/13 08:37:07;;;;;;;17.25;12.20;;;;;;;;;;4980512;28;20643;-58
2023/02/13 08:39:33;;;;;;;18.02;12.18;;;;;;;;;;4989808;28;20518;-58
2023/02/13 08:41:58;;;;;;;16.63;11.97;;;;;;;;;;4972236;28;20093;-59
2023/02/13 08:44:23;;;;;;;18.07;12.67;;;;;;;;;;4988960;28;20277;-61
2023/02/13 08:46:48;;;;;;;17.27;12.45;;;;;;;;;;4970880;28;20665;-65
2023/02/13 08:49:14;;;;;;;19.17;12.15;;;;;;;;;;4971851;28;20031;-64
2023/02/13 08:51:39;;;;;;;16.10;11.57;;;;;;;;;;4989150;28;20026;-63
2023/02/13 08:54:04;;;;;;;15.57;11.93;;;;;;;;;;4971427;28;20297;-61
2023/02/13 08:56:29;;;;;;;15.93;11.50;;;;;;;;;;4988431;28;20301;-64
2023/02/13 08:58:55;;;;;;;17.00;12.35;;;;;;;;;;4987449;28;20030;-62
2023/02/13 09:01:20;;;;;;;19.10;12.40;;;;;;;;;;4987275;28;20395;-62
2023/02/13 09:03:45;;;;;;;16.77;13.00;;;;;;;;;;4987514;28;20053;-61
2023/02/13 09:06:11;;;;;;;18.43;12.40;;;;;;;;;;4987946;28;20270;-61
2023/02/13 09:08:36;;;;;;;16.08;12.00;;;;;;;;;;4987784;28;20274;-64
2023/02/13 09:11:02;;;;;;;17.50;12.20;;;;;;;;;;4986893;28;20101;-65
2023/02/13 09:13:27;;;;;;;17.63;12.73;;;;;;;;;;4988265;28;20041;-58
2023/02/13 09:15:53;;;;;;;17.50;12.00;;;;;;;;;;4985309;28;20079;-60
2023/02/13 09:18:18;;;;;;;18.38;12.77;;;;;;;;;;4962734;28;20096;-61
2023/02/13 09:20:43;;;;;;;16.05;12.32;;;;;;;;;;4984642;28;20114;-64
2023/02/13 09:23:09;;;;;;;16.30;11.90;;;;;;;;;;4949743;28;20043;-59
2023/02/13 09:25:34;;;;;;;14.63;11.23;;;;;;;;;;4988687;28;20281;-60
2023/02/13 09:27:59;;;;;;;15.97;12.47;;;;;;;;;;4987029;28;20316;-60
2023/02/13 09:30:24;;;;;;;16.80;12.43;;;;;;;;;;4986931;28;20293;-63
2023/02/13 09:32:50;;;;;;;15.60;11.60;;;;;;;;;;4986795;28;20281;-59
2023/02/13 09:35:16;;;;;;;16.35;12.27;;;;;;;;;;4986694;28;20069;-60
2023/02/13 09:37:41;;;;;;;14.65;11.82;;;;;;;;;;4970656;28;20097;-61
2023/02/13 09:40:16;;;;;;;15.00;11.80;;;;;;;;;;4987725;28;20049;-63
2023/02/13 09:42:42;;;;;;;15.48;11.68;;;;;;;;;;4986265;28;20289;-63
2023/02/13 09:45:07;;;;;;;16.60;12.30;;;;;;;;;;4987664;28;20521;-67
2023/02/13 09:47:33;;;;;;;15.45;12.23;;;;;;;;;;4987479;28;20116;-60
2023/02/13 09:50:15;;;;;;;15.23;11.70;;;;;;;;;;4988627;28;20077;-63
2023/02/13 09:52:41;;;;;;;15.90;12.48;;;;;;;;;;4987314;28;20048;-64
2023/02/13 09:55:36;;;;;;;15.55;11.30;;;;;;;;;;4988466;28;20038;-64
2023/02/13 09:58:24;;;;;;;15.20;11.85;;;;;;;;;;4961332;28;20138;-64
2023/02/13 10:00:50;;;;;;;16.45;11.88;;;;;;;;;;4966129;28;20065;-61
2023/02/13 10:03:27;;;;;;;15.98;11.85;;;;;;;;;;4987469;28;20038;-61
2023/02/13 10:05:57;;;;;;;16.50;12.32;;;;;;;;;;4969474;28;20026;-60
2023/02/13 10:08:25;;;;;;;17.83;11.40;;;;;;;;;;4987510;28;20026;-62
2023/02/13 10:10:52;;;;;;;16.33;11.70;;;;;;;;;;4987347;28;20050;-60
2023/02/13 10:13:26;;;;;;;16.25;11.95;;;;;;;;;;4977774;28;20093;-59
2023/02/13 10:15:55;;;;;;;15.55;12.27;;;;;;;;;;4987699;28;20042;-60
2023/02/13 10:18:21;;;;;;;15.77;11.93;;;;;;;;;;4987335;28;20034;-60
2023/02/13 10:20:46;;;;;;;15.35;11.48;;;;;;;;;;4969580;28;20046;-60
2023/02/13 10:23:14;;;;;;;14.63;11.70;;;;;;;;;;4987277;28;20130;-61
2023/02/13 10:26:06;;;;;;;16.45;12.20;;;;;;;;;;4987268;28;20040;-59
2023/02/13 10:28:31;;;;;;;15.32;11.85;;;;;;;;;;4985908;28;20069;-57
2023/02/13 10:30:57;;;;;;;14.17;11.67;;;;;;;;;;4987833;28;20066;-58
2023/02/13 10:33:29;;;;;;;16.63;11.55;;;;;;;;;;4985187;28;20038;-60
2023/02/13 10:36:01;;;;;;;13.85;10.98;;;;;;;;;;4979083;28;20113;-60
2023/02/13 10:38:27;;;;;;;14.27;11.65;;;;;;;;;;4987394;28;20042;-64
2023/02/13 10:41:11;;;;;;;15.38;11.70;;;;;;;;;;4985795;28;20043;-59
2023/02/13 10:43:55;;;;;;;14.07;11.27;;;;;;;;;;4987415;28;20034;-60
2023/02/13 10:46:23;;;;;;;15.98;11.80;;;;;;;;;;4986060;28;20486;-61
2023/02/13 10:48:49;;;;;;;15.30;11.57;;;;;;;;;;4987342;28;20034;-61
2023/02/13 10:51:35;;;;;;;15.13;11.77;;;;;;;;;;4969109;28;20089;-60
2023/02/13 10:54:16;;;;;;;14.80;11.10;;;;;;;;;;4986997;28;20041;-57
2023/02/13 10:56:43;;;;;;;13.70;11.10;;;;;;;;;;4987254;28;20034;-62
2023/02/13 10:59:14;;;;;;;13.18;10.85;;;;;;;;;;4955787;28;20089;-57
2023/02/13 11:01:59;;;;;;;14.88;11.75;;;;;;;;;;4986007;28;20461;-61
2023/02/13 11:04:25;;;;;;;14.93;11.40;;;;;;;;;;4958090;28;20626;-61
2023/02/13 11:06:54;;;;;;;15.00;11.40;;;;;;;;;;4986875;28;20238;-60
2023/02/13 11:09:19;;;;;;;14.75;11.38;;;;;;;;;;4985003;28;20280;-60
2023/02/13 11:11:44;;;;;;;14.33;11.27;;;;;;;;;;4969125;28;20117;-61
2023/02/13 11:14:17;;;;;;;14.90;11.05;;;;;;;;;;4986911;28;20277;-62
2023/02/13 11:17:01;;;;;;;14.85;11.88;;;;;;;;;;4979103;28;20031;-61
2023/02/13 11:19:33;;;;;;;13.73;11.15;;;;;;;;;;4985003;28;20129;-56
2023/02/13 11:22:06;;;;;;;13.55;11.18;;;;;;;;;;4968918;28;20053;-58
2023/02/13 11:24:31;;;;;;;15.77;11.40;;;;;;;;;;4968414;28;20034;-59
2023/02/13 11:26:58;;;;;;;15.10;11.82;;;;;;;;;;4967569;28;20893;-59
2023/02/13 11:29:24;;;;;;;13.63;10.90;;;;;;;;;;4947779;28;20058;-58
2023/02/13 11:32:11;;;;;;;14.05;11.27;;;;;;;;;;4963943;28;20046;-60
2023/02/13 11:34:36;;;;;;;13.35;10.70;;;;;;;;;;4985620;28;20507;-62
2023/02/13 11:37:10;;;;;;;15.13;12.00;;;;;;;;;;4952490;28;20049;-62
2023/02/13 11:39:36;;;;;;;13.93;10.90;;;;;;;;;;4986418;28;20356;-61
2023/02/13 11:42:01;;;;;;;15.43;11.47;;;;;;;;;;4986625;28;20065;-62
2023/02/13 11:44:26;;;;;;;13.70;10.93;;;;;;;;;;4985285;28;20281;-60
2023/02/13 11:46:53;;;;;;;15.68;11.45;;;;;;;;;;4968895;28;20321;-61
2023/02/13 11:49:18;;;;;;;14.45;11.23;;;;;;;;;;4968338;28;20030;-59
2023/02/13 11:51:43;;;;;;;14.30;11.33;;;;;;;;;;4986408;28;20034;-59
2023/02/13 11:54:20;;;;;;;15.07;11.20;;;;;;;;;;4969005;28;20282;-63
2023/02/13 11:56:50;;;;;;;14.18;11.30;;;;;;;;;;4968635;28;20368;-61
2023/02/13 11:59:15;;;;;;;13.60;11.07;;;;;;;;;;4968982;28;20049;-56
2023/02/13 12:01:41;;;;;;;12.70;10.65;;;;;;;;;;4952646;28;20026;-60
2023/02/13 12:04:16;;;;;;;16.27;10.98;;;;;;;;;;4968912;28;20018;-62
2023/02/13 12:06:56;;;;;;;13.75;10.57;;;;;;;;;;4985741;28;20374;-63
2023/02/13 12:09:21;;;;;;;14.13;10.55;;;;;;;;;;4968425;28;20026;-59
2023/02/13 12:11:53;;;;;;;13.03;10.50;;;;;;;;;;4985801;28;20557;-58
2023/02/13 12:14:19;;;;;;;12.10;10.07;;;;;;;;;;4968043;28;20294;-60
2023/02/13 12:16:46;;;;;;;13.75;11.13;;;;;;;;;;4961785;28;20027;-60
2023/02/13 12:19:16;;;;;;;14.30;11.02;;;;;;;;;;4968523;28;20041;-62
2023/02/13 12:21:41;;;;;;;;;;;;;;;;;;4985000;28;20049;-61
2023/02/13 12:24:25;;;;;;;13.20;10.38;;;;;;;;;;4984614;28;19910;-61
2023/02/13 12:27:18;;;;;;;14.00;11.07;;;;;;;;;;4985424;28;20022;-64
2023/02/13 12:29:49;;;;;;;13.52;10.70;;;;;;;;;;4973192;28;20038;-60
2023/02/13 12:32:33;;;;;;;13.77;10.85;;;;;;;;;;4986158;28;20057;-60
2023/02/13 12:35:07;;;;;;;12.98;10.50;;;;;;;;;;4984361;28;20042;-60
2023/02/13 12:37:52;;;;;;;14.25;10.90;;;;;;;;;;4986307;28;20133;-60
2023/02/13 12:40:35;;;;;;;13.57;10.82;;;;;;;;;;4984035;28;20550;-59
2023/02/13 12:43:13;;;;;;;13.07;10.45;;;;;;;;;;4985315;28;20423;-65
2023/02/13 12:45:44;;;;;;;13.90;10.45;;;;;;;;;;4987311;28;20198;-59
2023/02/13 12:48:22;;;;;;;12.88;10.43;;;;;;;;;;4988842;28;20123;-61
2023/02/13 12:51:06;;;;;;;15.55;12.00;;;;;;;;;;4989161;28;20048;-60
2023/02/13 12:53:45;;;;;;;16.73;12.63;;;;;;;;;;4975523;28;20098;-62
2023/02/13 12:56:13;;;;;;;16.02;11.63;;;;;;;;;;4987190;28;20049;-61
2023/02/13 12:58:44;;;;;;;15.77;11.93;;;;;;;;;;4987233;28;20042;-59
2023/02/13 13:01:13;;;;;;;14.23;10.63;;;;;;;;;;4988723;28;20038;-61
2023/02/13 13:03:41;;;;;;;15.15;10.73;;;;;;;;;;4988760;28;20182;-60
2023/02/13 13:06:09;;;;;;;13.98;10.77;;;;;;;;;;4971000;28;20034;-61
2023/02/13 13:08:45;;;;;;;13.15;10.75;;;;;;;;;;4986973;28;20039;-59
2023/02/13 13:11:10;;;;;;;13.00;10.25;;;;;;;;;;4991999;28;20518;-63
2023/02/13 13:13:53;;;;;;;14.63;10.73;;;;;;;;;;4974564;28;20063;-60
2023/02/13 13:16:22;;;;;;;13.48;10.48;;;;;;;;;;4984156;28;20286;-60
2023/02/13 13:18:47;;;;;;;14.07;10.48;;;;;;;;;;4966115;28;20031;-60
2023/02/13 13:21:31;;;;;;;14.33;10.97;;;;;;;;;;4969589;28;20057;-62
2023/02/13 13:24:03;;;;;;;14.50;10.30;;;;;;;;;;4968747;28;20369;-61
2023/02/13 13:26:30;;;;;;;13.10;9.85;;;;;;;;;;4969092;28;20026;-61
2023/02/13 13:28:57;;;;;;;13.57;10.63;;;;;;;;;;4968780;28;20018;-59
2023/02/13 13:31:24;;;;;;;13.05;9.70;;;;;;;;;;4968660;28;20035;-58
2023/02/13 13:33:50;;;;;;;12.65;9.75;;;;;;;;;;4983023;28;20031;-62
2023/02/13 13:36:15;;;;;;;12.77;10.10;;;;;;;;;;4951917;28;20523;-59
2023/02/13 13:38:52;;;;;;;13.00;9.83;;;;;;;;;;4968824;28;20411;-61
2023/02/13 13:41:21;;;;;;;12.30;9.65;;;;;;;;;;4983101;28;20041;-60
2023/02/13 13:43:46;;;;;;;12.73;9.83;;;;;;;;;;4983475;28;20031;-64
2023/02/13 13:46:14;;;;;;;12.30;9.37;;;;;;;;;;4968295;28;20793;-63
2023/02/13 13:48:39;;;;;;;12.25;9.80;;;;;;;;;;4983493;28;20043;-59
2023/02/13 13:51:05;;;;;;;11.75;9.48;;;;;;;;;;4983303;28;21070;-57
2023/02/13 13:53:31;;;;;;;12.55;10.07;;;;;;;;;;4982934;28;20172;-62
2023/02/13 13:55:57;;;;;;;11.93;9.55;;;;;;;;;;4982438;28;20125;-60
2023/02/13 13:58:23;;;;;;;11.23;9.43;;;;;;;;;;4983533;28;20034;-57
2023/02/13 14:01:07;;;;;;;12.63;9.98;;;;;;;;;;4982576;28;20042;-58
2023/02/13 14:03:34;;;;;;;13.07;9.85;;;;;;;;;;4968415;28;20038;-59
2023/02/13 14:06:00;;;;;;;12.65;9.13;;;;;;;;;;4968130;28;20035;-60
2023/02/13 14:08:41;;;;;;;12.27;9.60;;;;;;;;;;4950822;28;20042;-60
2023/02/13 14:11:25;;;;;;;12.10;9.30;;;;;;;;;;4978985;28;20049;-60
2023/02/13 14:13:51;;;;;;;12.10;9.20;;;;;;;;;;4981915;28;20352;-61
2023/02/13 14:16:35;;;;;;;11.55;9.15;;;;;;;;;;4984779;28;20053;-61
2023/02/13 14:19:00;;;;;;;12.85;10.02;;;;;;;;;;4987648;28;20037;-63
2023/02/13 14:21:25;;;;;;;12.05;9.88;;;;;;;;;;4985757;28;20034;-64
2023/02/13 14:23:52;;;;;;;11.60;9.60;;;;;;;;;;4987038;28;20506;-66
2023/02/13 14:26:17;;;;;;;11.38;8.93;;;;;;;;;;4986190;28;20030;-59
2023/02/13 14:29:03;;;;;;;11.70;9.13;;;;;;;;;;4986445;28;20038;-66
2023/02/13 14:31:32;;;;;;;15.23;11.38;;;;;;;;;;4996909;28;20053;-60
2023/02/13 14:34:01;;;;;;;12.40;9.97;;;;;;;;;;4972721;28;20474;-61
2023/02/13 14:36:31;;;;;;;10.45;8.82;;;;;;;;;;4953881;28;20352;-60
2023/02/13 14:38:57;;;;;;;12.98;9.57;;;;;;;;;;4985753;28;20026;-63
2023/02/13 14:41:41;;;;;;;10.07;8.32;;;;;;;;;;4969297;28;20026;-61
2023/02/13 14:44:15;;;;;;;10.90;8.60;;;;;;;;;;4985915;28;20066;-62
2023/02/13 14:46:40;;;;;;;11.63;9.00;;;;;;;;;;4985223;28;20026;-59
2023/02/13 14:49:07;;;;;;;11.30;9.05;;;;;;;;;;4985238;28;20039;-60
2023/02/13 14:51:37;;;;;;;11.95;9.27;;;;;;;;;;4968764;28;20056;-58
2023/02/13 14:54:21;;;;;;;11.15;9.02;;;;;;;;;;4952737;28;20151;-58
2023/02/13 14:56:46;;;;;;;12.20;8.65;;;;;;;;;;4968633;28;20518;-58
2023/02/13 14:59:16;;;;;;;11.40;8.55;;;;;;;;;;4969242;28;20044;-62
2023/02/13 15:01:54;;;;;;;10.65;8.45;;;;;;;;;;4969623;28;20135;-60
2023/02/13 15:04:24;;;;;;;12.20;8.52;;;;;;;;;;4986106;28;20554;-58
2023/02/13 15:06:50;;;;;;;11.10;8.75;;;;;;;;;;4984621;28;20050;-58